This is the latest recevied weather packets stored in our database for station/object K5MJM. If no packets are shown the sender has not sent any weather packets the latest 10 day(s).
| Time | Temp. | Humidity | Pressure | Rain* | Wind** | Luminosity | Snow |
|---|---|---|---|---|---|---|---|
| 1777470078 | 10° C | 69% | 1021.3 hPa | 0 mm | - | - | - |
| 1777462279 | 8.89° C | 76% | 1019.5 hPa | 0 mm | - | - | - |
| 1777461700 | 8.89° C | 76% | 1019.5 hPa | 0 mm | - | - | - |
| 1777459877 | 8.89° C | 76% | 1019.7 hPa | 0 mm | - | - | - |
| 1777456279 | 9.44° C | 76% | 1020.1 hPa | 0 mm | - | - | - |
| 1777455099 | 10° C | 76% | 1019.8 hPa | 0 mm | - | - | - |
| 1777447898 | 10.56° C | 73% | 1019.7 hPa | 0 mm | - | - | - |
| 1777440700 | 12.78° C | 70% | 1017.6 hPa | 0 mm | - | - | - |
| 1777438278 | 13.89° C | 69% | 1017.2 hPa | 0 mm | - | - | - |
| 1777435898 | 14.44° C | 70% | 1017 hPa | 0 mm | - | - | - |
| 1777435278 | 14.44° C | 70% | 1017 hPa | 0 mm | - | - | - |
| 1777431698 | 15° C | 68% | 1016.3 hPa | 0 mm | - | - | - |
| 1777431078 | 15° C | 68% | 1016.3 hPa | 0 mm | - | - | - |
| 1777430498 | 15.56° C | 67% | 1016.1 hPa | 0 mm | - | - | - |
| 1777428678 | 16.11° C | 64% | 1015.9 hPa | 0 mm | - | - | - |
| 1777420877 | 20° C | 54% | 1014.6 hPa | 0 mm | - | - | - |
| 1777417278 | 20° C | 54% | 1014 hPa | 0 mm | - | - | - |
| 1777414278 | 19.44° C | 55% | 1013.7 hPa | 0 mm | - | - | - |
| 1777405298 | 17.22° C | 63% | 1013.6 hPa | 0 mm | - | - | - |
| 1777403498 | 16.67° C | 63% | 1014.2 hPa | 0 mm | - | - | - |
| 1777402278 | 15.56° C | 64% | 1014.1 hPa | 0 mm | - | - | - |
| 1777401678 | 15.56° C | 64% | 1014.3 hPa | 0 mm | - | - | - |
| 1777401078 | 15° C | 65% | 1014.1 hPa | 0 mm | - | - | - |
| 1777399278 | 14.44° C | 66% | 1014 hPa | 0 mm | - | - | - |
| 1777395078 | 14.44° C | 66% | 1014.7 hPa | 0 mm | - | - | - |
* Rain latest hour (hover to see other rain measurements)
** Current wind speed in m/s (hover to see current wind gust speed)